sensor_id;sensor_type;location;lat;lon;timestamp;pressure;altitude;pressure_sealevel;temperature;humidity
66547;BME280;53400;50.364;14.874;2023-03-15T00:00:30;97885.69;;;1.54;80.39
66547;BME280;53400;50.364;14.874;2023-03-15T00:03:16;97887.91;;;1.64;79.63
66547;BME280;53400;50.364;14.874;2023-03-15T00:05:43;97888.34;;;1.68;79.25
66547;BME280;53400;50.364;14.874;2023-03-15T00:08:09;97884.66;;;1.75;79.04
66547;BME280;53400;50.364;14.874;2023-03-15T00:10:39;97886.50;;;1.75;78.15
66547;BME280;53400;50.364;14.874;2023-03-15T00:13:05;97892.38;;;1.64;78.57
66547;BME280;53400;50.364;14.874;2023-03-15T00:15:32;97886.69;;;1.73;78.85
66547;BME280;53400;50.364;14.874;2023-03-15T00:17:58;97893.22;;;1.57;78.35
66547;BME280;53400;50.364;14.874;2023-03-15T00:20:24;97900.13;;;1.52;78.73
66547;BME280;53400;50.364;14.874;2023-03-15T00:22:50;97894.81;;;1.72;77.76
66547;BME280;53400;50.364;14.874;2023-03-15T00:25:16;97896.44;;;1.66;77.71
66547;BME280;53400;50.364;14.874;2023-03-15T00:27:42;97905.81;;;1.42;78.38
66547;BME280;53400;50.364;14.874;2023-03-15T00:30:09;97904.00;;;1.23;79.53
66547;BME280;53400;50.364;14.874;2023-03-15T00:32:36;97904.59;;;1.31;79.52
66547;BME280;53400;50.364;14.874;2023-03-15T00:35:02;97909.44;;;1.28;79.99
66547;BME280;53400;50.364;14.874;2023-03-15T00:37:29;97901.53;;;1.21;81.11
66547;BME280;53400;50.364;14.874;2023-03-15T00:39:56;97912.72;;;1.10;82.31
66547;BME280;53400;50.364;14.874;2023-03-15T00:42:21;97900.97;;;1.19;81.84
66547;BME280;53400;50.364;14.874;2023-03-15T00:44:52;97902.56;;;1.07;82.68
66547;BME280;53400;50.364;14.874;2023-03-15T00:47:21;97909.63;;;1.00;83.41
66547;BME280;53400;50.364;14.874;2023-03-15T00:49:49;97907.03;;;1.13;82.38
66547;BME280;53400;50.364;14.874;2023-03-15T00:52:15;97920.63;;;1.30;82.46
66547;BME280;53400;50.364;14.874;2023-03-15T00:54:41;97909.25;;;0.96;82.79
66547;BME280;53400;50.364;14.874;2023-03-15T00:57:08;97926.06;;;0.95;83.58
66547;BME280;53400;50.364;14.874;2023-03-15T00:59:34;97926.66;;;0.84;84.35
66547;BME280;53400;50.364;14.874;2023-03-15T01:02:00;97926.66;;;0.90;84.24
66547;BME280;53400;50.364;14.874;2023-03-15T01:04:26;97927.66;;;0.76;84.21
66547;BME280;53400;50.364;14.874;2023-03-15T01:06:53;97937.84;;;0.93;83.69
66547;BME280;53400;50.364;14.874;2023-03-15T01:09:19;97933.34;;;0.86;83.30
66547;BME280;53400;50.364;14.874;2023-03-15T01:11:45;97934.78;;;0.96;83.62
66547;BME280;53400;50.364;14.874;2023-03-15T01:14:12;97940.63;;;0.78;83.50
66547;BME280;53400;50.364;14.874;2023-03-15T01:16:37;97944.31;;;0.83;83.65
66547;BME280;53400;50.364;14.874;2023-03-15T01:19:03;97944.06;;;0.78;83.22
66547;BME280;53400;50.364;14.874;2023-03-15T01:21:29;97945.88;;;0.71;83.25
66547;BME280;53400;50.364;14.874;2023-03-15T01:23:57;97954.28;;;1.08;82.01
66547;BME280;53400;50.364;14.874;2023-03-15T01:26:23;97956.91;;;0.95;81.31
66547;BME280;53400;50.364;14.874;2023-03-15T01:28:49;97947.16;;;0.95;82.06
66547;BME280;53400;50.364;14.874;2023-03-15T01:31:18;97955.25;;;0.87;82.22
66547;BME280;53400;50.364;14.874;2023-03-15T01:33:44;97957.88;;;0.80;81.79
66547;BME280;53400;50.364;14.874;2023-03-15T01:36:11;97959.94;;;0.91;81.74
66547;BME280;53400;50.364;14.874;2023-03-15T01:38:37;97957.72;;;0.88;81.73
66547;BME280;53400;50.364;14.874;2023-03-15T01:41:04;97963.16;;;0.87;80.98
66547;BME280;53400;50.364;14.874;2023-03-15T01:43:31;97965.00;;;1.00;81.10
66547;BME280;53400;50.364;14.874;2023-03-15T01:46:12;97967.41;;;0.88;81.46
66547;BME280;53400;50.364;14.874;2023-03-15T01:48:43;97960.34;;;0.88;80.67
66547;BME280;53400;50.364;14.874;2023-03-15T01:51:16;97969.09;;;1.02;79.77
66547;BME280;53400;50.364;14.874;2023-03-15T01:53:51;97968.03;;;0.97;80.29
66547;BME280;53400;50.364;14.874;2023-03-15T01:56:21;97961.34;;;0.94;80.01
66547;BME280;53400;50.364;14.874;2023-03-15T01:58:49;97964.84;;;1.21;78.89
66547;BME280;53400;50.364;14.874;2023-03-15T02:01:17;97964.44;;;1.18;79.21
66547;BME280;53400;50.364;14.874;2023-03-15T02:03:46;97969.53;;;1.26;78.87
66547;BME280;53400;50.364;14.874;2023-03-15T02:06:16;97966.47;;;1.15;79.13
66547;BME280;53400;50.364;14.874;2023-03-15T02:08:45;97958.31;;;0.90;79.46
66547;BME280;53400;50.364;14.874;2023-03-15T02:11:16;97964.59;;;0.83;80.14
66547;BME280;53400;50.364;14.874;2023-03-15T02:13:45;97971.84;;;0.67;81.24
66547;BME280;53400;50.364;14.874;2023-03-15T02:16:12;97978.47;;;0.57;83.08
66547;BME280;53400;50.364;14.874;2023-03-15T02:18:38;97991.78;;;0.49;83.75
66547;BME280;53400;50.364;14.874;2023-03-15T02:21:13;98006.22;;;0.53;83.79
66547;BME280;53400;50.364;14.874;2023-03-15T02:23:42;98008.47;;;0.56;83.14
66547;BME280;53400;50.364;14.874;2023-03-15T02:26:16;97996.69;;;0.52;83.85
66547;BME280;53400;50.364;14.874;2023-03-15T02:28:48;97996.50;;;0.53;84.12
66547;BME280;53400;50.364;14.874;2023-03-15T02:31:15;97986.91;;;0.45;83.95
66547;BME280;53400;50.364;14.874;2023-03-15T02:33:43;97990.97;;;0.41;82.62
66547;BME280;53400;50.364;14.874;2023-03-15T02:36:15;97987.78;;;0.53;81.62
66547;BME280;53400;50.364;14.874;2023-03-15T02:38:42;97986.75;;;0.54;81.27
66547;BME280;53400;50.364;14.874;2023-03-15T02:41:09;97989.78;;;0.51;80.95
66547;BME280;53400;50.364;14.874;2023-03-15T02:43:36;97988.00;;;0.58;80.70
66547;BME280;53400;50.364;14.874;2023-03-15T02:46:05;97988.63;;;0.60;81.53
66547;BME280;53400;50.364;14.874;2023-03-15T02:48:33;97989.16;;;0.49;82.14
66547;BME280;53400;50.364;14.874;2023-03-15T02:51:00;97996.88;;;0.50;81.46
66547;BME280;53400;50.364;14.874;2023-03-15T02:53:28;97995.44;;;0.48;81.53
66547;BME280;53400;50.364;14.874;2023-03-15T02:55:54;97990.47;;;0.66;81.68
66547;BME280;53400;50.364;14.874;2023-03-15T02:58:20;98009.47;;;0.55;82.28
66547;BME280;53400;50.364;14.874;2023-03-15T03:00:46;98024.97;;;0.36;83.12
66547;BME280;53400;50.364;14.874;2023-03-15T03:03:13;98032.38;;;0.19;83.97
66547;BME280;53400;50.364;14.874;2023-03-15T03:05:39;98045.34;;;0.21;84.27
66547;BME280;53400;50.364;14.874;2023-03-15T03:08:05;98053.69;;;0.25;83.98
66547;BME280;53400;50.364;14.874;2023-03-15T03:10:31;98061.34;;;0.19;84.53
66547;BME280;53400;50.364;14.874;2023-03-15T03:12:57;98060.97;;;0.22;83.08
66547;BME280;53400;50.364;14.874;2023-03-15T03:15:24;98065.47;;;0.29;82.48
66547;BME280;53400;50.364;14.874;2023-03-15T03:17:50;98059.56;;;0.27;82.54
66547;BME280;53400;50.364;14.874;2023-03-15T03:20:18;98047.38;;;0.19;82.38
66547;BME280;53400;50.364;14.874;2023-03-15T03:22:44;98050.59;;;0.21;82.44
66547;BME280;53400;50.364;14.874;2023-03-15T03:25:10;98054.72;;;0.30;82.03
66547;BME280;53400;50.364;14.874;2023-03-15T03:27:37;98056.16;;;0.33;81.72
66547;BME280;53400;50.364;14.874;2023-03-15T03:30:03;98062.47;;;0.38;82.47
66547;BME280;53400;50.364;14.874;2023-03-15T03:32:29;98067.75;;;0.38;83.00
66547;BME280;53400;50.364;14.874;2023-03-15T03:34:55;98065.91;;;0.39;83.69
66547;BME280;53400;50.364;14.874;2023-03-15T03:37:22;98083.25;;;0.27;84.62
66547;BME280;53400;50.364;14.874;2023-03-15T03:39:48;98091.03;;;0.35;86.10
66547;BME280;53400;50.364;14.874;2023-03-15T03:42:14;98082.22;;;0.21;86.51
66547;BME280;53400;50.364;14.874;2023-03-15T03:44:40;98084.28;;;0.26;85.77
66547;BME280;53400;50.364;14.874;2023-03-15T03:47:07;98092.75;;;0.21;85.68
66547;BME280;53400;50.364;14.874;2023-03-15T03:49:32;98097.06;;;0.29;85.44
66547;BME280;53400;50.364;14.874;2023-03-15T03:51:59;98096.38;;;0.20;86.50
66547;BME280;53400;50.364;14.874;2023-03-15T03:54:27;98101.66;;;0.20;85.62
66547;BME280;53400;50.364;14.874;2023-03-15T03:56:53;98111.38;;;0.19;86.62
66547;BME280;53400;50.364;14.874;2023-03-15T03:59:19;98118.53;;;0.88;99.45
66547;BME280;53400;50.364;14.874;2023-03-15T04:01:46;98118.97;;;0.64;88.22
66547;BME280;53400;50.364;14.874;2023-03-15T04:04:12;98124.78;;;0.53;85.69
66547;BME280;53400;50.364;14.874;2023-03-15T04:06:39;98132.44;;;0.48;88.02
66547;BME280;53400;50.364;14.874;2023-03-15T04:09:10;98135.13;;;0.54;86.11
66547;BME280;53400;50.364;14.874;2023-03-15T04:11:38;98139.84;;;0.59;85.89
66547;BME280;53400;50.364;14.874;2023-03-15T04:14:07;98142.81;;;0.49;85.82
66547;BME280;53400;50.364;14.874;2023-03-15T04:16:33;98147.16;;;0.35;87.22
66547;BME280;53400;50.364;14.874;2023-03-15T04:18:59;98154.38;;;0.27;87.30
66547;BME280;53400;50.364;14.874;2023-03-15T04:21:25;98159.00;;;0.46;87.63
66547;BME280;53400;50.364;14.874;2023-03-15T04:23:56;98158.75;;;0.69;85.52
66547;BME280;53400;50.364;14.874;2023-03-15T04:26:23;98167.41;;;0.63;86.13
66547;BME280;53400;50.364;14.874;2023-03-15T04:28:52;98169.63;;;0.59;87.22
66547;BME280;53400;50.364;14.874;2023-03-15T04:31:18;98166.84;;;0.67;88.02
66547;BME280;53400;50.364;14.874;2023-03-15T04:33:44;98167.66;;;0.68;87.60
66547;BME280;53400;50.364;14.874;2023-03-15T04:36:10;98181.47;;;0.70;87.08
66547;BME280;53400;50.364;14.874;2023-03-15T04:38:42;98178.66;;;0.78;90.26
66547;BME280;53400;50.364;14.874;2023-03-15T04:41:11;98189.94;;;0.65;88.71
66547;BME280;53400;50.364;14.874;2023-03-15T04:43:37;98192.91;;;0.56;89.17
66547;BME280;53400;50.364;14.874;2023-03-15T04:46:05;98190.88;;;0.58;89.08
66547;BME280;53400;50.364;14.874;2023-03-15T04:48:30;98192.41;;;0.67;89.41
66547;BME280;53400;50.364;14.874;2023-03-15T04:50:56;98197.59;;;0.60;89.23
66547;BME280;53400;50.364;14.874;2023-03-15T04:53:22;98186.88;;;0.62;88.04
66547;BME280;53400;50.364;14.874;2023-03-15T04:55:48;98194.66;;;0.49;88.51
66547;BME280;53400;50.364;14.874;2023-03-15T04:58:14;98198.69;;;0.44;89.17
66547;BME280;53400;50.364;14.874;2023-03-15T05:00:40;98200.28;;;0.17;90.78
66547;BME280;53400;50.364;14.874;2023-03-15T05:03:07;98202.22;;;0.30;89.71
66547;BME280;53400;50.364;14.874;2023-03-15T05:05:33;98210.31;;;0.29;90.40
66547;BME280;53400;50.364;14.874;2023-03-15T05:07:59;98210.19;;;0.37;93.78
66547;BME280;53400;50.364;14.874;2023-03-15T05:10:26;98212.97;;;0.57;89.29
66547;BME280;53400;50.364;14.874;2023-03-15T05:12:54;98216.28;;;0.37;89.38
66547;BME280;53400;50.364;14.874;2023-03-15T05:15:21;98213.22;;;0.34;89.30
66547;BME280;53400;50.364;14.874;2023-03-15T05:17:47;98221.28;;;0.32;89.28
66547;BME280;53400;50.364;14.874;2023-03-15T05:20:15;98229.41;;;0.31;89.31
66547;BME280;53400;50.364;14.874;2023-03-15T05:22:42;98226.19;;;0.35;88.87
66547;BME280;53400;50.364;14.874;2023-03-15T05:25:09;98229.31;;;0.24;89.45
66547;BME280;53400;50.364;14.874;2023-03-15T05:27:35;98223.53;;;0.35;88.99
66547;BME280;53400;50.364;14.874;2023-03-15T05:30:02;98221.56;;;0.16;89.34
66547;BME280;53400;50.364;14.874;2023-03-15T05:32:29;98227.53;;;0.25;89.29
66547;BME280;53400;50.364;14.874;2023-03-15T05:34:59;98228.88;;;0.20;89.37
66547;BME280;53400;50.364;14.874;2023-03-15T05:37:26;98247.47;;;0.34;89.24
66547;BME280;53400;50.364;14.874;2023-03-15T05:39:52;98252.78;;;0.19;89.71
66547;BME280;53400;50.364;14.874;2023-03-15T05:42:18;98262.13;;;0.21;89.42
66547;BME280;53400;50.364;14.874;2023-03-15T05:44:50;98258.91;;;0.05;89.56
66547;BME280;53400;50.364;14.874;2023-03-15T05:47:15;98257.09;;;0.05;89.53
66547;BME280;53400;50.364;14.874;2023-03-15T05:49:42;98269.34;;;0.13;89.93
66547;BME280;53400;50.364;14.874;2023-03-15T05:52:08;98279.28;;;0.17;88.75
66547;BME280;53400;50.364;14.874;2023-03-15T05:54:35;98276.72;;;0.24;88.51
66547;BME280;53400;50.364;14.874;2023-03-15T05:57:01;98278.16;;;0.27;87.58
66547;BME280;53400;50.364;14.874;2023-03-15T05:59:28;98290.53;;;0.26;88.09
66547;BME280;53400;50.364;14.874;2023-03-15T06:01:54;98298.53;;;0.18;88.15
66547;BME280;53400;50.364;14.874;2023-03-15T06:04:20;98300.31;;;0.32;88.33
66547;BME280;53400;50.364;14.874;2023-03-15T06:06:45;98303.31;;;0.29;88.36
66547;BME280;53400;50.364;14.874;2023-03-15T06:09:12;98308.25;;;0.17;88.42
66547;BME280;53400;50.364;14.874;2023-03-15T06:11:39;98307.06;;;0.20;88.48
66547;BME280;53400;50.364;14.874;2023-03-15T06:14:05;98318.41;;;0.20;88.65
66547;BME280;53400;50.364;14.874;2023-03-15T06:16:31;98313.31;;;0.34;87.85
66547;BME280;53400;50.364;14.874;2023-03-15T06:18:57;98320.94;;;0.29;88.11
66547;BME280;53400;50.364;14.874;2023-03-15T06:21:23;98330.31;;;0.31;87.93
66547;BME280;53400;50.364;14.874;2023-03-15T06:23:49;98336.81;;;0.35;88.89
66547;BME280;53400;50.364;14.874;2023-03-15T06:26:15;98345.59;;;0.42;88.60
66547;BME280;53400;50.364;14.874;2023-03-15T06:28:44;98359.91;;;0.55;87.98
66547;BME280;53400;50.364;14.874;2023-03-15T06:31:12;98354.16;;;0.66;87.20
66547;BME280;53400;50.364;14.874;2023-03-15T06:33:39;98358.63;;;0.87;87.31
66547;BME280;53400;50.364;14.874;2023-03-15T06:36:05;98371.78;;;1.08;86.10
66547;BME280;53400;50.364;14.874;2023-03-15T06:38:32;98375.28;;;1.15;86.23
66547;BME280;53400;50.364;14.874;2023-03-15T06:40:57;98375.69;;;1.41;86.75
66547;BME280;53400;50.364;14.874;2023-03-15T06:43:26;98388.44;;;1.65;86.54
66547;BME280;53400;50.364;14.874;2023-03-15T06:45:53;98395.38;;;2.01;88.20
66547;BME280;53400;50.364;14.874;2023-03-15T06:48:20;98392.53;;;2.09;84.93
66547;BME280;53400;50.364;14.874;2023-03-15T06:50:46;98396.34;;;2.41;83.18
66547;BME280;53400;50.364;14.874;2023-03-15T06:53:12;98397.03;;;2.63;80.84
66547;BME280;53400;50.364;14.874;2023-03-15T06:55:38;98394.41;;;2.76;82.22
66547;BME280;53400;50.364;14.874;2023-03-15T06:58:04;98398.50;;;2.86;79.74
66547;BME280;53400;50.364;14.874;2023-03-15T07:00:30;98398.75;;;3.17;77.63
66547;BME280;53400;50.364;14.874;2023-03-15T07:02:57;98410.38;;;3.30;78.10
66547;BME280;53400;50.364;14.874;2023-03-15T07:05:23;98402.81;;;3.40;77.27
66547;BME280;53400;50.364;14.874;2023-03-15T07:07:49;98410.56;;;3.61;76.77
66547;BME280;53400;50.364;14.874;2023-03-15T07:10:15;98404.63;;;3.93;77.55
66547;BME280;53400;50.364;14.874;2023-03-15T07:12:41;98413.16;;;3.88;77.96
66547;BME280;53400;50.364;14.874;2023-03-15T07:15:07;98418.69;;;3.80;77.79
66547;BME280;53400;50.364;14.874;2023-03-15T07:17:34;98417.06;;;3.79;77.98
66547;BME280;53400;50.364;14.874;2023-03-15T07:20:01;98421.06;;;4.14;76.37
66547;BME280;53400;50.364;14.874;2023-03-15T07:22:27;98423.91;;;4.13;75.85
66547;BME280;53400;50.364;14.874;2023-03-15T07:24:52;98425.91;;;4.31;76.54
66547;BME280;53400;50.364;14.874;2023-03-15T07:27:18;98420.44;;;4.12;76.18
66547;BME280;53400;50.364;14.874;2023-03-15T07:29:44;98424.88;;;4.32;78.29
66547;BME280;53400;50.364;14.874;2023-03-15T07:32:10;98433.63;;;4.39;80.04
66547;BME280;53400;50.364;14.874;2023-03-15T07:34:36;98431.50;;;4.61;74.46
66547;BME280;53400;50.364;14.874;2023-03-15T07:37:04;98440.91;;;4.50;72.56
66547;BME280;53400;50.364;14.874;2023-03-15T07:39:29;98437.03;;;4.53;74.14
66547;BME280;53400;50.364;14.874;2023-03-15T07:41:57;98436.44;;;4.51;73.64
66547;BME280;53400;50.364;14.874;2023-03-15T07:44:23;98433.91;;;4.04;75.43
66547;BME280;53400;50.364;14.874;2023-03-15T07:46:49;98438.28;;;3.65;76.69
66547;BME280;53400;50.364;14.874;2023-03-15T07:49:15;98447.75;;;4.26;74.41
66547;BME280;53400;50.364;14.874;2023-03-15T07:51:41;98450.44;;;4.00;76.32
66547;BME280;53400;50.364;14.874;2023-03-15T07:54:09;98442.78;;;4.43;75.00
66547;BME280;53400;50.364;14.874;2023-03-15T07:56:35;98440.41;;;4.22;76.45
66547;BME280;53400;50.364;14.874;2023-03-15T07:59:00;98446.81;;;4.52;74.88
66547;BME280;53400;50.364;14.874;2023-03-15T08:01:27;98454.88;;;4.77;68.87
66547;BME280;53400;50.364;14.874;2023-03-15T08:03:53;98452.53;;;4.63;67.41
66547;BME280;53400;50.364;14.874;2023-03-15T08:06:19;98456.09;;;4.81;67.38
66547;BME280;53400;50.364;14.874;2023-03-15T08:08:44;98453.00;;;5.23;66.23
66547;BME280;53400;50.364;14.874;2023-03-15T08:11:12;98460.63;;;5.13;68.69
66547;BME280;53400;50.364;14.874;2023-03-15T08:13:38;98458.28;;;5.29;69.49
66547;BME280;53400;50.364;14.874;2023-03-15T08:16:04;98463.94;;;5.65;66.71
66547;BME280;53400;50.364;14.874;2023-03-15T08:18:30;98458.81;;;5.38;66.23
66547;BME280;53400;50.364;14.874;2023-03-15T08:20:56;98464.94;;;5.07;65.29
66547;BME280;53400;50.364;14.874;2023-03-15T08:23:23;98451.75;;;5.25;62.38
66547;BME280;53400;50.364;14.874;2023-03-15T08:25:49;98457.28;;;4.86;61.76
66547;BME280;53400;50.364;14.874;2023-03-15T08:28:16;98460.88;;;5.36;60.83
66547;BME280;53400;50.364;14.874;2023-03-15T08:30:42;98459.97;;;5.17;60.49
66547;BME280;53400;50.364;14.874;2023-03-15T08:33:08;98463.16;;;5.33;60.19
66547;BME280;53400;50.364;14.874;2023-03-15T08:35:34;98466.31;;;5.16;60.66
66547;BME280;53400;50.364;14.874;2023-03-15T08:38:00;98465.59;;;4.96;60.40
66547;BME280;53400;50.364;14.874;2023-03-15T08:40:28;98463.69;;;5.41;61.87
66547;BME280;53400;50.364;14.874;2023-03-15T08:42:54;98470.09;;;4.95;62.54
66547;BME280;53400;50.364;14.874;2023-03-15T08:45:22;98477.97;;;5.15;59.63
66547;BME280;53400;50.364;14.874;2023-03-15T08:47:49;98474.22;;;5.29;60.55
66547;BME280;53400;50.364;14.874;2023-03-15T08:50:16;98483.56;;;5.32;60.15
66547;BME280;53400;50.364;14.874;2023-03-15T08:52:43;98489.44;;;5.41;59.18
66547;BME280;53400;50.364;14.874;2023-03-15T08:55:10;98476.97;;;5.98;57.95
66547;BME280;53400;50.364;14.874;2023-03-15T08:57:38;98477.06;;;6.10;59.99
66547;BME280;53400;50.364;14.874;2023-03-15T09:00:05;98473.59;;;5.27;62.90
66547;BME280;53400;50.364;14.874;2023-03-15T09:02:35;98485.13;;;5.46;61.42
66547;BME280;53400;50.364;14.874;2023-03-15T09:05:02;98478.81;;;5.66;61.83
66547;BME280;53400;50.364;14.874;2023-03-15T09:07:28;98492.66;;;5.49;59.28
66547;BME280;53400;50.364;14.874;2023-03-15T09:09:54;98489.97;;;6.06;55.97
66547;BME280;53400;50.364;14.874;2023-03-15T09:12:20;98480.19;;;6.43;56.32
66547;BME280;53400;50.364;14.874;2023-03-15T09:14:46;98493.16;;;5.90;54.49
66547;BME280;53400;50.364;14.874;2023-03-15T09:17:12;98479.25;;;5.63;55.38
66547;BME280;53400;50.364;14.874;2023-03-15T09:19:39;98478.31;;;5.50;55.93
66547;BME280;53400;50.364;14.874;2023-03-15T09:22:06;98486.91;;;5.78;57.96
66547;BME280;53400;50.364;14.874;2023-03-15T09:24:32;98483.84;;;6.06;56.71
66547;BME280;53400;50.364;14.874;2023-03-15T09:26:57;98495.66;;;6.10;55.53
66547;BME280;53400;50.364;14.874;2023-03-15T09:29:24;98500.69;;;5.68;56.20
66547;BME280;53400;50.364;14.874;2023-03-15T09:31:49;98501.56;;;5.93;55.12
66547;BME280;53400;50.364;14.874;2023-03-15T09:34:15;98496.50;;;6.47;53.43
66547;BME280;53400;50.364;14.874;2023-03-15T09:36:42;98499.41;;;6.46;53.92
66547;BME280;53400;50.364;14.874;2023-03-15T09:39:08;98494.34;;;6.93;53.65
66547;BME280;53400;50.364;14.874;2023-03-15T09:41:40;98491.09;;;7.21;51.19
66547;BME280;53400;50.364;14.874;2023-03-15T09:44:14;98494.81;;;6.71;52.38
66547;BME280;53400;50.364;14.874;2023-03-15T09:46:48;98486.03;;;6.34;53.85
66547;BME280;53400;50.364;14.874;2023-03-15T09:49:31;98494.53;;;6.79;55.22
66547;BME280;53400;50.364;14.874;2023-03-15T09:52:03;98494.47;;;6.68;55.74
66547;BME280;53400;50.364;14.874;2023-03-15T09:54:38;98498.22;;;6.41;58.96
66547;BME280;53400;50.364;14.874;2023-03-15T09:57:11;98496.50;;;6.29;60.31
66547;BME280;53400;50.364;14.874;2023-03-15T09:59:42;98494.38;;;6.56;57.46
66547;BME280;53400;50.364;14.874;2023-03-15T10:02:16;98489.94;;;6.50;53.10
66547;BME280;53400;50.364;14.874;2023-03-15T10:04:44;98492.56;;;7.05;52.55
66547;BME280;53400;50.364;14.874;2023-03-15T10:07:13;98491.53;;;6.87;56.39
66547;BME280;53400;50.364;14.874;2023-03-15T10:09:41;98489.50;;;6.53;56.98
66547;BME280;53400;50.364;14.874;2023-03-15T10:12:09;98500.72;;;6.92;57.58
66547;BME280;53400;50.364;14.874;2023-03-15T10:14:51;98497.28;;;7.03;56.87
66547;BME280;53400;50.364;14.874;2023-03-15T10:17:27;98499.88;;;7.51;52.36
66547;BME280;53400;50.364;14.874;2023-03-15T10:19:59;98492.44;;;7.42;55.73
66547;BME280;53400;50.364;14.874;2023-03-15T10:22:34;98503.91;;;7.30;56.98
66547;BME280;53400;50.364;14.874;2023-03-15T10:25:04;98507.28;;;7.07;58.66
66547;BME280;53400;50.364;14.874;2023-03-15T10:27:39;98505.84;;;7.65;55.26
66547;BME280;53400;50.364;14.874;2023-03-15T10:30:15;98494.66;;;8.10;52.96
66547;BME280;53400;50.364;14.874;2023-03-15T10:32:45;98488.50;;;7.98;56.43
66547;BME280;53400;50.364;14.874;2023-03-15T10:35:14;98492.00;;;6.66;56.92
66547;BME280;53400;50.364;14.874;2023-03-15T10:37:42;98495.41;;;6.36;55.45
66547;BME280;53400;50.364;14.874;2023-03-15T10:40:09;98502.94;;;6.21;57.70
66547;BME280;53400;50.364;14.874;2023-03-15T10:42:41;98509.19;;;6.27;57.89
66547;BME280;53400;50.364;14.874;2023-03-15T10:45:18;98503.41;;;5.86;58.97
66547;BME280;53400;50.364;14.874;2023-03-15T10:47:46;98502.84;;;6.09;57.63
66547;BME280;53400;50.364;14.874;2023-03-15T10:50:17;98509.59;;;5.80;57.12
66547;BME280;53400;50.364;14.874;2023-03-15T10:52:53;98502.16;;;5.64;60.75
66547;BME280;53400;50.364;14.874;2023-03-15T10:55:29;98503.28;;;5.49;61.08
66547;BME280;53400;50.364;14.874;2023-03-15T10:57:57;98502.53;;;5.67;61.25
66547;BME280;53400;50.364;14.874;2023-03-15T11:00:29;98501.34;;;5.88;58.12
66547;BME280;53400;50.364;14.874;2023-03-15T11:03:03;98498.41;;;5.71;56.12
66547;BME280;53400;50.364;14.874;2023-03-15T11:05:30;98499.84;;;5.99;59.23
66547;BME280;53400;50.364;14.874;2023-03-15T11:07:59;98500.00;;;6.48;56.67
66547;BME280;53400;50.364;14.874;2023-03-15T11:10:27;98493.44;;;6.99;54.55
66547;BME280;53400;50.364;14.874;2023-03-15T11:13:17;98489.78;;;7.11;58.87
66547;BME280;53400;50.364;14.874;2023-03-15T11:15:55;98492.66;;;6.80;55.23
66547;BME280;53400;50.364;14.874;2023-03-15T11:18:28;98486.22;;;6.87;54.66
66547;BME280;53400;50.364;14.874;2023-03-15T11:20:56;98489.19;;;6.98;52.15
66547;BME280;53400;50.364;14.874;2023-03-15T11:23:26;98481.34;;;6.66;58.13
66547;BME280;53400;50.364;14.874;2023-03-15T11:25:53;98494.16;;;6.57;57.76
66547;BME280;53400;50.364;14.874;2023-03-15T11:28:22;98489.22;;;6.42;53.62
66547;BME280;53400;50.364;14.874;2023-03-15T11:30:49;98484.91;;;6.23;54.70
66547;BME280;53400;50.364;14.874;2023-03-15T11:33:26;98482.97;;;6.12;59.27
66547;BME280;53400;50.364;14.874;2023-03-15T11:35:59;98483.53;;;5.95;59.56
66547;BME280;53400;50.364;14.874;2023-03-15T11:38:31;98486.34;;;6.01;56.73
66547;BME280;53400;50.364;14.874;2023-03-15T11:40:59;98473.09;;;6.19;55.78
66547;BME280;53400;50.364;14.874;2023-03-15T11:43:30;98469.09;;;6.28;55.38
66547;BME280;53400;50.364;14.874;2023-03-15T11:46:04;98472.41;;;6.24;57.05
66547;BME280;53400;50.364;14.874;2023-03-15T11:48:35;98465.56;;;6.34;56.93
66547;BME280;53400;50.364;14.874;2023-03-15T11:51:05;98474.94;;;6.37;56.24
66547;BME280;53400;50.364;14.874;2023-03-15T11:53:37;98460.31;;;6.28;55.84
66547;BME280;53400;50.364;14.874;2023-03-15T11:56:18;98471.59;;;6.41;56.74
66547;BME280;53400;50.364;14.874;2023-03-15T11:58:58;98458.75;;;6.38;58.42
66547;BME280;53400;50.364;14.874;2023-03-15T12:01:27;98465.44;;;6.78;58.03
66547;BME280;53400;50.364;14.874;2023-03-15T12:04:28;98457.56;;;6.71;58.18
66547;BME280;53400;50.364;14.874;2023-03-15T12:06:55;98457.72;;;6.76;56.32
66547;BME280;53400;50.364;14.874;2023-03-15T12:09:53;98450.38;;;6.72;59.41
66547;BME280;53400;50.364;14.874;2023-03-15T12:12:36;98453.09;;;6.83;57.64
66547;BME280;53400;50.364;14.874;2023-03-15T12:15:13;98458.75;;;7.47;68.13
66547;BME280;53400;50.364;14.874;2023-03-15T12:17:44;98457.19;;;6.68;55.22
66547;BME280;53400;50.364;14.874;2023-03-15T12:20:17;98458.19;;;6.55;56.53
66547;BME280;53400;50.364;14.874;2023-03-15T12:22:49;98453.56;;;6.62;57.88
66547;BME280;53400;50.364;14.874;2023-03-15T12:25:20;98460.44;;;6.51;57.59
66547;BME280;53400;50.364;14.874;2023-03-15T12:27:49;98456.16;;;6.69;57.89
66547;BME280;53400;50.364;14.874;2023-03-15T12:30:21;98455.00;;;6.95;59.14
66547;BME280;53400;50.364;14.874;2023-03-15T12:32:51;98459.56;;;7.06;59.61
66547;BME280;53400;50.364;14.874;2023-03-15T12:35:19;98456.88;;;7.06;58.88
66547;BME280;53400;50.364;14.874;2023-03-15T12:37:48;98460.88;;;6.85;56.62
66547;BME280;53400;50.364;14.874;2023-03-15T12:40:39;98461.41;;;6.57;58.21
66547;BME280;53400;50.364;14.874;2023-03-15T12:43:05;98458.59;;;6.70;59.26
66547;BME280;53400;50.364;14.874;2023-03-15T12:45:41;98452.50;;;6.81;58.66
66547;BME280;53400;50.364;14.874;2023-03-15T12:48:24;98452.69;;;6.68;58.28
66547;BME280;53400;50.364;14.874;2023-03-15T12:50:59;98461.19;;;6.58;59.82
66547;BME280;53400;50.364;14.874;2023-03-15T12:53:45;98465.19;;;6.49;61.72
66547;BME280;53400;50.364;14.874;2023-03-15T12:56:47;98472.19;;;6.62;61.44
66547;BME280;53400;50.364;14.874;2023-03-15T12:59:29;98464.16;;;6.50;62.53
66547;BME280;53400;50.364;14.874;2023-03-15T13:01:57;98473.97;;;6.50;62.55
66547;BME280;53400;50.364;14.874;2023-03-15T13:04:25;98473.19;;;6.49;63.27
66547;BME280;53400;50.364;14.874;2023-03-15T13:07:06;98478.69;;;6.48;64.03